Time;durP1;ratioP1;P1;durP2;ratioP2;P2;SDS_P1;SDS_P2;PMS_P1;PMS_P2;Temp;Humidity;BMP_temperature;BMP_pressure;BME280_temperature;BME280_humidity;BME280_pressure;Samples;Min_cycle;Max_cycle;Signal;HPM_P1;HPM_P2
2022/07/20 00:02:11;;;;;;;3.17;1.85;;;20.40;99.90;;;;;;5008975;28;20168;-80
2022/07/20 00:04:36;;;;;;;2.30;1.58;;;20.30;99.90;;;;;;5007723;28;20117;-80
2022/07/20 00:07:02;;;;;;;1.98;1.58;;;20.30;99.90;;;;;;5008034;28;20029;-79
2022/07/20 00:12:12;;;;;;;2.35;1.55;;;20.20;99.90;;;;;;5007500;28;20570;-80
2022/07/20 00:14:37;;;;;;;4.85;1.58;;;20.10;99.90;;;;;;5007748;28;20038;-80
2022/07/20 00:17:03;;;;;;;2.90;1.90;;;20.10;99.90;;;;;;5011455;28;20038;-80
2022/07/20 00:19:28;;;;;;;1.65;1.38;;;20.10;99.90;;;;;;5011618;28;20203;-80
2022/07/20 00:21:53;;;;;;;1.77;1.48;;;20.00;99.90;;;;;;5012197;28;20026;-80
2022/07/20 00:24:19;;;;;;;3.30;1.42;;;20.00;99.90;;;;;;5010204;28;20038;-80
2022/07/20 00:26:44;;;;;;;3.33;1.70;;;20.00;99.90;;;;;;5012508;28;20026;-80
2022/07/20 00:29:10;;;;;;;1.83;1.60;;;20.00;99.90;;;;;;5009880;28;20026;-80
2022/07/20 00:31:36;;;;;;;3.45;2.03;;;20.00;99.90;;;;;;5012135;28;20041;-80
2022/07/20 00:34:02;;;;;;;2.70;1.75;;;20.00;99.90;;;;;;5010928;28;20038;-79
2022/07/20 00:36:27;;;;;;;2.58;1.90;;;20.00;99.90;;;;;;5009781;28;20091;-79
2022/07/20 00:38:53;;;;;;;1.88;1.55;;;20.00;99.90;;;;;;5011492;28;20113;-80
2022/07/20 00:41:18;;;;;;;2.05;1.77;;;19.90;99.90;;;;;;5011261;28;20496;-79
2022/07/20 00:43:57;;;;;;;2.38;1.75;;;19.90;99.90;;;;;;5010856;28;20477;-80
2022/07/20 00:46:23;;;;;;;2.35;1.42;;;19.80;99.90;;;;;;5009131;28;20029;-80
2022/07/20 00:48:48;;;;;;;2.67;1.85;;;19.90;99.90;;;;;;5011767;28;20033;-80
2022/07/20 00:51:14;;;;;;;2.03;1.73;;;19.80;99.90;;;;;;5010977;28;20018;-80
2022/07/20 00:53:40;;;;;;;2.22;1.52;;;19.80;99.90;;;;;;5011807;28;20037;-80
2022/07/20 00:56:07;;;;;;;2.40;1.50;;;19.70;99.90;;;;;;5010434;28;20037;-80
2022/07/20 00:58:32;;;;;;;3.05;1.77;;;19.60;99.90;;;;;;5009463;28;20060;-79
2022/07/20 01:00:58;;;;;;;2.60;1.35;;;19.60;99.90;;;;;;5011368;28;20054;-79
2022/07/20 01:03:23;;;;;;;3.22;1.88;;;19.60;99.90;;;;;;5010398;28;20076;-79
2022/07/20 01:05:49;;;;;;;3.15;1.75;;;19.60;99.90;;;;;;5011062;28;20045;-79
2022/07/20 01:08:14;;;;;;;1.90;1.45;;;19.60;99.90;;;;;;5010484;28;20049;-79
2022/07/20 01:10:40;;;;;;;1.85;1.45;;;19.60;99.90;;;;;;5005561;28;20022;-79
2022/07/20 01:13:06;;;;;;;3.17;1.80;;;19.50;99.90;;;;;;5009460;28;20037;-79
2022/07/20 01:15:31;;;;;;;2.60;1.60;;;19.50;99.90;;;;;;5008566;28;20551;-79
2022/07/20 01:17:57;;;;;;;3.05;1.95;;;19.40;99.90;;;;;;5009716;28;20042;-78
2022/07/20 01:20:24;;;;;;;2.05;1.38;;;19.40;99.90;;;;;;5010964;28;20064;-78
2022/07/20 01:22:50;;;;;;;4.07;1.63;;;19.40;99.90;;;;;;5012297;28;20485;-79
2022/07/20 01:25:16;;;;;;;2.65;1.52;;;19.40;99.90;;;;;;5016275;28;20030;-79
2022/07/20 01:27:41;;;;;;;3.13;1.85;;;19.30;99.90;;;;;;4996929;28;20481;-79
2022/07/20 01:30:08;;;;;;;1.98;1.38;;;19.30;99.90;;;;;;5010669;28;20022;-78
2022/07/20 01:32:33;;;;;;;2.53;1.75;;;19.20;99.90;;;;;;5009013;28;20026;-79
2022/07/20 01:34:59;;;;;;;2.45;1.85;;;19.30;99.90;;;;;;5009157;28;20061;-79
2022/07/20 01:37:24;;;;;;;2.70;1.73;;;19.30;99.90;;;;;;5014441;28;20037;-79
2022/07/20 01:39:51;;;;;;;1.85;1.50;;;19.30;99.90;;;;;;5010609;28;20022;-79
2022/07/20 01:42:17;;;;;;;3.60;1.73;;;19.20;99.90;;;;;;5011513;28;20018;-79
2022/07/20 01:44:42;;;;;;;4.20;1.92;;;19.20;99.90;;;;;;5009606;28;20389;-79
2022/07/20 01:47:07;;;;;;;2.53;1.80;;;19.10;99.90;;;;;;5014190;28;20076;-78
2022/07/20 01:49:33;;;;;;;2.88;1.90;;;19.10;99.90;;;;;;5011719;28;20030;-78
2022/07/20 01:52:00;;;;;;;3.83;2.03;;;19.10;99.90;;;;;;5009824;28;20030;-78
2022/07/20 01:54:26;;;;;;;2.97;2.22;;;19.10;99.90;;;;;;5010195;28;20056;-79
2022/07/20 01:56:52;;;;;;;2.10;1.40;;;19.00;99.90;;;;;;5022855;28;20038;-78
2022/07/20 01:59:17;;;;;;;2.80;1.95;;;19.00;99.90;;;;;;5021033;28;20033;-78
2022/07/20 02:01:43;;;;;;;2.38;1.65;;;18.90;99.90;;;;;;4999809;28;20042;-79
2022/07/20 02:04:08;;;;;;;2.55;1.83;;;18.90;99.90;;;;;;5013444;28;20114;-79
2022/07/20 02:06:34;;;;;;;2.20;1.67;;;18.90;99.90;;;;;;5009314;28;20567;-79
2022/07/20 02:08:59;;;;;;;3.13;1.70;;;18.90;99.90;;;;;;5010598;28;20030;-79
2022/07/20 02:11:25;;;;;;;3.47;1.85;;;18.80;99.90;;;;;;5010640;28;20105;-79
2022/07/20 02:13:50;;;;;;;3.88;2.00;;;18.80;99.90;;;;;;5010251;28;20038;-79
2022/07/20 02:16:16;;;;;;;3.92;2.13;;;18.80;99.90;;;;;;5009223;28;20060;-79
2022/07/20 02:18:44;;;;;;;2.35;1.45;;;18.80;99.90;;;;;;5009695;28;20069;-79
2022/07/20 02:21:09;;;;;;;3.67;2.00;;;18.80;99.90;;;;;;5009024;28;20045;-79
2022/07/20 02:23:35;;;;;;;3.25;2.10;;;18.80;99.90;;;;;;5009095;28;20022;-79
2022/07/20 02:26:00;;;;;;;2.67;1.98;;;18.70;99.90;;;;;;5010060;28;20026;-79
2022/07/20 02:28:26;;;;;;;4.03;1.60;;;18.70;99.90;;;;;;5007990;28;20033;-79
2022/07/20 02:30:51;;;;;;;1.67;1.48;;;18.60;99.90;;;;;;5009947;28;20061;-79
2022/07/20 02:33:17;;;;;;;2.10;1.52;;;18.70;99.90;;;;;;5009664;28;20026;-79
2022/07/20 02:35:42;;;;;;;2.78;2.10;;;18.60;99.90;;;;;;5009303;28;20021;-79
2022/07/20 02:38:08;;;;;;;4.88;1.65;;;18.60;99.90;;;;;;5008936;28;20029;-78
2022/07/20 02:40:33;;;;;;;3.53;1.90;;;18.60;99.90;;;;;;5007859;28;21390;-79
2022/07/20 02:42:59;;;;;;;6.38;1.80;;;18.60;99.90;;;;;;5008849;28;20038;-79
2022/07/20 02:45:24;;;;;;;2.92;2.05;;;18.50;99.90;;;;;;5009806;28;20044;-79
2022/07/20 02:47:49;;;;;;;5.15;1.80;;;18.50;99.90;;;;;;5006887;28;20076;-78
2022/07/20 02:50:15;;;;;;;2.45;1.60;;;18.60;99.90;;;;;;5009835;28;20469;-79
2022/07/20 02:52:42;;;;;;;5.85;1.85;;;18.50;99.90;;;;;;5001550;28;20026;-78
2022/07/20 02:55:08;;;;;;;2.90;1.75;;;18.50;99.90;;;;;;5008584;28;20777;-78
2022/07/20 02:57:34;;;;;;;2.50;1.80;;;18.50;99.90;;;;;;5006610;28;20045;-79
2022/07/20 03:00:00;;;;;;;2.08;1.75;;;18.40;99.90;;;;;;5010064;28;20404;-78
2022/07/20 03:02:25;;;;;;;2.40;1.60;;;18.40;99.90;;;;;;5005203;28;20109;-78
2022/07/20 03:04:51;;;;;;;2.22;1.70;;;18.40;99.90;;;;;;5007848;28;20164;-78
2022/07/20 03:07:16;;;;;;;2.20;1.80;;;18.40;99.90;;;;;;5007932;28;20018;-79
2022/07/20 03:09:42;;;;;;;2.90;1.85;;;18.40;99.90;;;;;;5009259;28;20029;-79
2022/07/20 03:12:08;;;;;;;2.70;1.92;;;18.40;99.90;;;;;;5008000;28;20026;-79
2022/07/20 03:14:34;;;;;;;2.90;1.73;;;18.40;99.90;;;;;;5008822;28;20032;-80
2022/07/20 03:16:59;;;;;;;3.60;1.98;;;18.20;99.90;;;;;;5007392;28;20554;-80
2022/07/20 03:19:25;;;;;;;2.75;2.13;;;18.30;99.90;;;;;;5008799;28;20018;-80
2022/07/20 03:21:50;;;;;;;2.15;1.95;;;18.30;99.90;;;;;;5007576;28;20645;-79
2022/07/20 03:24:16;;;;;;;2.38;1.55;;;18.30;99.90;;;;;;5008481;28;20516;-79
2022/07/20 03:26:41;;;;;;;3.25;2.17;;;18.30;99.90;;;;;;5006291;28;20431;-79
2022/07/20 03:29:07;;;;;;;2.50;1.92;;;18.30;99.90;;;;;;5007310;28;20026;-79
2022/07/20 03:31:32;;;;;;;2.70;1.65;;;18.40;99.90;;;;;;5007347;28;20026;-79
2022/07/20 03:33:57;;;;;;;4.00;2.20;;;18.40;99.90;;;;;;5007165;28;20056;-80
2022/07/20 03:36:23;;;;;;;2.60;1.95;;;18.40;99.90;;;;;;5008252;28;20425;-80
2022/07/20 03:38:48;;;;;;;3.33;2.25;;;18.40;99.90;;;;;;5008019;28;20072;-79
2022/07/20 03:41:14;;;;;;;3.17;2.08;;;18.30;99.90;;;;;;5006916;28;20033;-79
2022/07/20 03:43:39;;;;;;;2.20;1.83;;;18.30;99.90;;;;;;5006285;28;20037;-79
2022/07/20 03:46:05;;;;;;;2.55;1.83;;;18.40;99.90;;;;;;5007528;28;20121;-79
2022/07/20 03:48:30;;;;;;;3.63;2.00;;;18.40;99.90;;;;;;5008441;28;20029;-79
2022/07/20 03:50:56;;;;;;;3.13;1.70;;;18.40;99.90;;;;;;5003607;28;20018;-79
2022/07/20 03:53:21;;;;;;;4.75;1.80;;;18.40;99.90;;;;;;5015271;28;20037;-80
2022/07/20 03:55:47;;;;;;;3.30;2.08;;;18.40;99.90;;;;;;5011133;28;20442;-79
2022/07/20 03:58:12;;;;;;;4.32;1.75;;;18.50;99.90;;;;;;5008632;28;20038;-80
2022/07/20 04:00:38;;;;;;;2.65;2.03;;;18.50;99.90;;;;;;5011556;28;20374;-79
2022/07/20 04:03:03;;;;;;;4.72;2.30;;;18.50;99.90;;;;;;5010566;28;20045;-80
2022/07/20 04:05:29;;;;;;;3.63;2.00;;;18.50;99.90;;;;;;4993974;28;20469;-79
2022/07/20 04:07:54;;;;;;;3.13;1.90;;;18.50;99.90;;;;;;5009970;28;20033;-80
2022/07/20 04:10:19;;;;;;;2.03;1.40;;;18.60;99.90;;;;;;5012094;28;20038;-79
2022/07/20 04:12:45;;;;;;;6.32;1.85;;;18.60;99.90;;;;;;5007520;28;20026;-79
2022/07/20 04:15:11;;;;;;;2.75;1.90;;;18.60;99.90;;;;;;5012635;28;20101;-79
2022/07/20 04:17:40;;;;;;;3.17;2.05;;;18.60;99.90;;;;;;5010865;28;20538;-79
2022/07/20 04:20:05;;;;;;;2.72;2.08;;;18.60;99.90;;;;;;5007334;28;20477;-80
2022/07/20 04:22:31;;;;;;;3.67;2.25;;;18.60;99.90;;;;;;5009865;28;20030;-80
2022/07/20 04:24:56;;;;;;;3.30;2.13;;;18.70;99.90;;;;;;5009208;28;20396;-80
2022/07/20 04:27:22;;;;;;;3.38;2.30;;;18.70;99.90;;;;;;5009872;28;20069;-80
2022/07/20 04:29:47;;;;;;;3.88;2.38;;;18.80;99.90;;;;;;5009789;28;20034;-79
2022/07/20 04:32:13;;;;;;;3.90;2.25;;;18.80;99.90;;;;;;5010024;28;20030;-79
2022/07/20 04:34:38;;;;;;;2.85;2.08;;;18.80;99.90;;;;;;4993141;28;20029;-79
2022/07/20 04:37:04;;;;;;;1.88;1.60;;;18.80;99.90;;;;;;5011763;28;20030;-79
2022/07/20 04:39:29;;;;;;;3.33;1.98;;;18.90;99.90;;;;;;5008990;28;20505;-79
2022/07/20 04:41:55;;;;;;;2.08;1.67;;;19.00;99.90;;;;;;5009597;28;20070;-79
2022/07/20 04:44:20;;;;;;;2.47;1.85;;;19.00;99.90;;;;;;5009843;28;20026;-80
2022/07/20 04:46:46;;;;;;;3.13;2.20;;;19.10;99.90;;;;;;5009897;28;20495;-80
2022/07/20 04:49:11;;;;;;;3.10;1.88;;;19.10;99.90;;;;;;5009159;28;20030;-80
2022/07/20 04:51:37;;;;;;;3.28;2.05;;;19.20;99.90;;;;;;5011169;28;20033;-79
2022/07/20 04:54:03;;;;;;;2.85;2.38;;;19.30;99.90;;;;;;5007585;28;20033;-79
2022/07/20 04:56:29;;;;;;;5.95;2.17;;;19.30;99.90;;;;;;5010180;28;20041;-80
2022/07/20 04:58:55;;;;;;;3.25;2.00;;;19.40;99.90;;;;;;5011067;28;20030;-80
2022/07/20 05:01:22;;;;;;;2.78;1.92;;;19.40;99.90;;;;;;5008283;28;20034;-80
2022/07/20 05:03:48;;;;;;;3.00;2.03;;;19.50;99.90;;;;;;5009508;28;20032;-79
2022/07/20 05:06:13;;;;;;;3.20;2.53;;;19.60;99.90;;;;;;5008869;28;20022;-80
2022/07/20 05:08:39;;;;;;;2.28;1.77;;;19.60;99.90;;;;;;5007792;28;20022;-80
2022/07/20 05:11:05;;;;;;;4.47;2.40;;;19.70;99.90;;;;;;5008053;28;20387;-80
2022/07/20 05:13:30;;;;;;;2.17;1.95;;;19.80;99.90;;;;;;4993239;28;20034;-79
2022/07/20 05:15:56;;;;;;;4.35;2.58;;;19.90;99.90;;;;;;5009356;28;20018;-80
2022/07/20 05:18:21;;;;;;;2.42;1.80;;;19.90;99.90;;;;;;5011859;28;20433;-79
2022/07/20 05:20:47;;;;;;;2.88;1.98;;;20.00;99.90;;;;;;5015115;28;20022;-79
2022/07/20 05:23:12;;;;;;;6.18;2.60;;;20.10;99.90;;;;;;5011279;28;20113;-79
2022/07/20 05:25:41;;;;;;;3.60;2.20;;;20.10;99.90;;;;;;5009013;28;20416;-78
2022/07/20 05:28:07;;;;;;;2.75;2.08;;;20.20;99.90;;;;;;5015942;28;20080;-79
2022/07/20 05:30:33;;;;;;;4.38;2.55;;;20.30;99.90;;;;;;5011904;28;20032;-79
2022/07/20 05:32:58;;;;;;;2.22;1.73;;;20.40;99.90;;;;;;5011189;28;20117;-79
2022/07/20 05:35:24;;;;;;;4.63;2.58;;;20.50;99.90;;;;;;5010799;28;20055;-79
2022/07/20 05:37:49;;;;;;;4.32;2.78;;;20.60;99.90;;;;;;5013388;28;20079;-83
2022/07/20 05:40:15;;;;;;;3.60;2.50;;;20.70;99.90;;;;;;5013832;28;20026;-80
2022/07/20 05:42:40;;;;;;;4.05;2.40;;;20.80;99.90;;;;;;5012551;28;20104;-79
2022/07/20 05:45:06;;;;;;;3.65;2.50;;;20.90;99.90;;;;;;5010035;28;20580;-81
2022/07/20 05:47:32;;;;;;;3.15;2.47;;;21.00;99.90;;;;;;5008467;28;20080;-79
2022/07/20 05:49:58;;;;;;;3.78;2.20;;;21.20;99.90;;;;;;5020847;28;20102;-79
2022/07/20 05:52:23;;;;;;;6.57;2.40;;;21.30;99.90;;;;;;5010727;28;20398;-79
2022/07/20 05:54:49;;;;;;;3.83;2.30;;;21.40;99.90;;;;;;5014349;28;20389;-80
2022/07/20 05:57:15;;;;;;;18.08;2.50;;;21.40;99.80;;;;;;5008851;28;20053;-79
2022/07/20 05:59:41;;;;;;;3.47;2.45;;;21.60;99.80;;;;;;5009673;28;20033;-79
2022/07/20 06:02:08;;;;;;;3.22;2.53;;;21.70;96.70;;;;;;5010893;28;20026;-81
2022/07/20 06:04:33;;;;;;;4.20;2.25;;;22.00;94.20;;;;;;5010189;28;20025;-80
2022/07/20 06:06:58;;;;;;;8.00;3.00;;;22.20;93.40;;;;;;5012609;28;20041;-79
2022/07/20 06:09:24;;;;;;;3.53;2.45;;;22.20;93.50;;;;;;5011781;28;20393;-79
2022/07/20 06:11:50;;;;;;;4.78;3.08;;;22.40;93.20;;;;;;5010260;28;20022;-82
2022/07/20 06:14:15;;;;;;;4.57;2.97;;;22.50;93.70;;;;;;5017471;28;20025;-82
2022/07/20 06:16:41;;;;;;;6.25;2.75;;;22.60;91.90;;;;;;5013967;28;20050;-81
2022/07/20 06:19:06;;;;;;;4.07;2.80;;;22.70;90.90;;;;;;5008636;28;20117;-80
2022/07/20 06:21:32;;;;;;;4.65;3.15;;;22.80;89.40;;;;;;5010266;28;20026;-80
2022/07/20 06:23:57;;;;;;;2.55;2.20;;;23.00;90.30;;;;;;5019526;28;20417;-81
2022/07/20 06:26:23;;;;;;;3.83;2.40;;;23.10;88.80;;;;;;5009604;28;20400;-82
2022/07/20 06:28:49;;;;;;;4.07;2.55;;;23.20;84.70;;;;;;5010435;28;20026;-82
2022/07/20 06:31:14;;;;;;;14.10;3.70;;;23.40;84.10;;;;;;5008481;28;20018;-82
2022/07/20 06:33:40;;;;;;;6.78;3.20;;;23.40;83.70;;;;;;5009668;28;20041;-81
2022/07/20 06:36:05;;;;;;;5.00;2.90;;;23.50;84.80;;;;;;5002152;28;20018;-81
2022/07/20 06:38:32;;;;;;;6.25;3.75;;;23.50;83.90;;;;;;5008991;28;20065;-82
2022/07/20 06:40:58;;;;;;;2.88;2.58;;;23.60;80.20;;;;;;5008273;28;20018;-77
2022/07/20 06:43:23;;;;;;;4.18;2.40;;;23.70;79.40;;;;;;5007701;28;20408;-81
2022/07/20 06:45:51;;;;;;;6.03;2.70;;;23.80;78.30;;;;;;5005619;28;20034;-76
2022/07/20 06:48:17;;;;;;;3.50;2.65;;;23.80;78.50;;;;;;5006259;28;20109;-77
2022/07/20 06:50:43;;;;;;;5.03;3.03;;;23.90;77.60;;;;;;5007476;28;20105;-76
2022/07/20 06:53:08;;;;;;;4.47;2.92;;;23.90;78.90;;;;;;5007612;28;20141;-76
2022/07/20 06:55:40;;;;;;;3.30;2.70;;;23.90;79.60;;;;;;5008804;28;20494;-79
2022/07/20 06:58:05;;;;;;;4.38;2.67;;;24.00;80.20;;;;;;4989707;28;20251;-79
2022/07/20 07:00:31;;;;;;;8.30;3.47;;;24.10;80.80;;;;;;5005088;28;20380;-79
2022/07/20 07:02:56;;;;;;;5.97;2.67;;;24.10;80.00;;;;;;5006144;28;20038;-77
2022/07/20 07:05:22;;;;;;;5.03;3.20;;;24.20;76.30;;;;;;5008993;28;20033;-77
2022/07/20 07:07:47;;;;;;;3.47;2.60;;;24.30;74.70;;;;;;5009459;28;20450;-77
2022/07/20 07:10:13;;;;;;;3.30;2.58;;;24.40;75.60;;;;;;5010607;28;20022;-85
2022/07/20 07:12:39;;;;;;;3.45;2.58;;;24.60;78.00;;;;;;5004982;28;20377;-84
2022/07/20 07:15:05;;;;;;;5.57;3.58;;;24.70;75.00;;;;;;5008881;28;20156;-77
2022/07/20 07:17:31;;;;;;;4.78;2.67;;;24.70;75.60;;;;;;5006579;28;20073;-79
2022/07/20 07:19:58;;;;;;;7.40;3.35;;;24.90;74.20;;;;;;5007128;28;20045;-75
2022/07/20 07:22:25;;;;;;;3.20;2.58;;;25.00;71.20;;;;;;5007401;28;20041;-80
2022/07/20 07:24:51;;;;;;;4.57;2.97;;;25.10;72.80;;;;;;5008410;28;20034;-80
2022/07/20 07:27:16;;;;;;;6.30;3.03;;;25.10;70.30;;;;;;5013334;28;20033;-80
2022/07/20 07:29:42;;;;;;;5.68;3.33;;;25.30;71.20;;;;;;5011391;28;20026;-80
2022/07/20 07:32:07;;;;;;;4.50;2.83;;;25.50;70.50;;;;;;5009846;28;20075;-75
2022/07/20 07:34:33;;;;;;;6.03;3.00;;;25.50;72.40;;;;;;5009423;28;20029;-80
2022/07/20 07:36:59;;;;;;;4.80;2.40;;;25.60;72.10;;;;;;5007429;28;20038;-80
2022/07/20 07:39:24;;;;;;;6.32;2.78;;;25.70;71.80;;;;;;5011746;28;20493;-81
2022/07/20 07:41:50;;;;;;;3.13;2.50;;;25.80;74.30;;;;;;5011035;28;20033;-81
2022/07/20 07:44:15;;;;;;;3.92;2.92;;;25.80;69.60;;;;;;5012256;28;20033;-83
2022/07/20 07:46:41;;;;;;;2.50;2.20;;;26.00;69.50;;;;;;4992795;28;20022;-82
2022/07/20 07:49:06;;;;;;;3.72;2.65;;;26.10;67.50;;;;;;5008569;28;20377;-81
2022/07/20 07:51:32;;;;;;;3.40;2.25;;;26.00;66.70;;;;;;5010826;28;20481;-81
2022/07/20 07:53:58;;;;;;;3.63;2.70;;;26.10;65.90;;;;;;5013581;28;20026;-81
2022/07/20 07:56:23;;;;;;;4.40;3.00;;;26.20;65.20;;;;;;5011672;28;20076;-81
2022/07/20 07:58:49;;;;;;;3.97;3.08;;;26.20;66.70;;;;;;5010841;28;20033;-80
2022/07/20 08:01:15;;;;;;;4.05;2.60;;;26.30;64.80;;;;;;5011529;28;20041;-81
2022/07/20 08:03:40;;;;;;;4.15;2.63;;;26.50;65.60;;;;;;5010477;28;20034;-81
2022/07/20 08:06:06;;;;;;;4.47;2.80;;;26.70;63.90;;;;;;5008035;28;20058;-81
2022/07/20 08:08:31;;;;;;;8.95;3.33;;;26.70;64.90;;;;;;5011381;28;20030;-80
2022/07/20 08:10:58;;;;;;;2.97;2.13;;;26.80;64.20;;;;;;5010143;28;20040;-82
2022/07/20 08:13:23;;;;;;;3.75;2.85;;;26.80;64.20;;;;;;5007644;28;20029;-81
2022/07/20 08:15:49;;;;;;;7.30;3.58;;;27.30;67.30;;;;;;5008486;28;20076;-81
2022/07/20 08:18:15;;;;;;;3.85;2.67;;;27.40;68.70;;;;;;5011629;28;20030;-80
2022/07/20 08:20:41;;;;;;;4.00;2.55;;;27.30;65.50;;;;;;5013259;28;20113;-80
2022/07/20 08:23:06;;;;;;;3.63;2.40;;;27.60;66.80;;;;;;5008856;28;20037;-81
2022/07/20 08:25:32;;;;;;;3.45;2.53;;;27.60;64.40;;;;;;5010810;28;20500;-81
2022/07/20 08:28:18;;;;;;;4.45;2.40;;;27.70;59.50;;;;;;5012048;28;20113;-80
2022/07/20 08:30:46;;;;;;;3.65;2.70;;;27.70;59.70;;;;;;5002371;28;20105;-81
2022/07/20 08:33:12;;;;;;;3.63;2.03;;;27.70;60.00;;;;;;5004787;28;20033;-81
2022/07/20 08:35:38;;;;;;;3.22;2.30;;;27.80;62.40;;;;;;5010181;28;20022;-81
2022/07/20 08:38:05;;;;;;;4.00;2.53;;;27.70;61.50;;;;;;5005878;28;20084;-81
2022/07/20 08:40:31;;;;;;;3.28;2.40;;;27.90;59.60;;;;;;5010007;28;20042;-79
2022/07/20 08:42:57;;;;;;;4.93;2.72;;;28.20;62.60;;;;;;5010895;28;20388;-81
2022/07/20 08:45:23;;;;;;;3.13;2.40;;;28.50;66.60;;;;;;5009228;28;20033;-80
2022/07/20 08:47:49;;;;;;;2.63;2.20;;;28.60;62.80;;;;;;5009373;28;20113;-81
2022/07/20 08:50:22;;;;;;;4.25;2.47;;;28.60;64.30;;;;;;5010757;28;20566;-78
2022/07/20 08:52:47;;;;;;;2.65;2.13;;;28.80;59.40;;;;;;5009730;28;20026;-81
2022/07/20 08:55:13;;;;;;;4.22;3.00;;;29.00;59.30;;;;;;5008472;28;20026;-81
2022/07/20 08:57:38;;;;;;;4.40;2.67;;;29.20;58.90;;;;;;5005358;28;20049;-80
2022/07/20 09:00:05;;;;;;;2.85;2.55;;;29.20;57.70;;;;;;5011696;28;20038;-78
2022/07/20 09:02:48;;;;;;;6.18;3.30;;;29.50;57.00;;;;;;5013758;28;20477;-80
2022/07/20 09:05:14;;;;;;;4.10;2.70;;;29.60;58.70;;;;;;5009829;28;20115;-81
2022/07/20 09:07:42;;;;;;;2.35;1.98;;;29.60;55.40;;;;;;5009969;28;20342;-80
2022/07/20 09:10:11;;;;;;;2.95;2.17;;;29.60;54.50;;;;;;5007899;28;20029;-80
2022/07/20 09:12:54;;;;;;;3.63;2.53;;;29.70;55.60;;;;;;5008054;28;20022;-81
2022/07/20 09:15:27;;;;;;;4.68;2.40;;;29.80;56.90;;;;;;5008083;28;20072;-80
2022/07/20 09:18:18;;;;;;;2.88;2.53;;;29.90;57.00;;;;;;5009684;28;20050;-80
2022/07/20 09:21:07;;;;;;;6.10;3.20;;;29.80;56.60;;;;;;5009088;28;20057;-78
2022/07/20 09:23:47;;;;;;;3.53;2.28;;;30.00;56.80;;;;;;5000793;28;20172;-79
2022/07/20 09:26:16;;;;;;;4.47;2.47;;;30.10;58.10;;;;;;5007663;28;20416;-80
2022/07/20 09:28:50;;;;;;;3.13;2.35;;;30.40;56.10;;;;;;5007286;28;20061;-81
2022/07/20 09:31:18;;;;;;;3.50;2.38;;;30.60;55.50;;;;;;5009950;28;20084;-80
2022/07/20 09:33:56;;;;;;;3.03;2.17;;;30.70;53.80;;;;;;5007324;28;20022;-80
2022/07/20 09:36:23;;;;;;;2.67;2.05;;;30.70;52.40;;;;;;5007226;28;20392;-78
2022/07/20 09:38:51;;;;;;;3.30;2.38;;;30.70;52.40;;;;;;5002592;28;20025;-81
2022/07/20 09:41:28;;;;;;;4.90;2.65;;;30.50;51.70;;;;;;5008397;28;20042;-81
2022/07/20 09:43:55;;;;;;;3.42;2.38;;;30.50;53.90;;;;;;5011011;28;20022;-77
2022/07/20 09:46:24;;;;;;;4.18;2.70;;;30.80;53.70;;;;;;5010505;28;20049;-77
2022/07/20 09:48:52;;;;;;;2.97;2.08;;;30.90;53.70;;;;;;5002305;28;20117;-78
2022/07/20 09:51:26;;;;;;;4.38;2.15;;;30.70;48.30;;;;;;5001804;28;20072;-78
2022/07/20 09:53:58;;;;;;;3.83;2.30;;;31.00;52.20;;;;;;5004732;28;20037;-79
2022/07/20 09:56:24;;;;;;;2.17;1.95;;;31.20;49.80;;;;;;5013002;28;20032;-79
2022/07/20 09:58:52;;;;;;;1.77;1.50;;;31.00;48.00;;;;;;5006873;28;20030;-81
2022/07/20 10:01:24;;;;;;;2.95;2.20;;;31.20;49.20;;;;;;5008572;28;20045;-81
2022/07/20 10:03:52;;;;;;;2.70;2.00;;;31.60;49.70;;;;;;5009555;28;20034;-80
2022/07/20 10:06:20;;;;;;;2.15;1.75;;;31.50;47.90;;;;;;5013909;28;20030;-80
2022/07/20 10:08:46;;;;;;;1.90;1.73;;;31.80;48.60;;;;;;4999568;28;20085;-79
2022/07/20 10:11:14;;;;;;;2.28;1.92;;;31.70;48.00;;;;;;5001426;28;20040;-81
2022/07/20 10:13:41;;;;;;;1.75;1.60;;;31.90;46.80;;;;;;5004974;28;20387;-82
2022/07/20 10:16:20;;;;;;;2.55;1.85;;;31.80;48.70;;;;;;5006845;28;20100;-78
2022/07/20 10:19:21;;;;;;;4.13;1.80;;;31.80;45.10;;;;;;5005958;28;20098;-78
2022/07/20 10:21:47;;;;;;;;;;;31.70;45.00;;;;;;4999121;28;20485;-78
2022/07/20 10:24:30;;;;;;;4.57;2.38;;;31.70;46.30;;;;;;5005083;28;19925;-81
2022/07/20 10:27:07;;;;;;;4.95;2.40;;;31.90;46.70;;;;;;5010324;28;20042;-79
2022/07/20 10:29:36;;;;;;;3.72;2.45;;;32.00;46.50;;;;;;5009371;28;20100;-79
2022/07/20 10:32:23;;;;;;;3.92;2.35;;;32.30;46.30;;;;;;5007938;28;20061;-80
2022/07/20 10:34:56;;;;;;;2.35;2.13;;;32.40;47.80;;;;;;4999016;28;20080;-80
2022/07/20 10:37:42;;;;;;;4.93;2.28;;;32.50;44.90;;;;;;5009471;28;20385;-81
2022/07/20 10:40:12;;;;;;;3.45;2.33;;;32.40;44.30;;;;;;5003744;28;20040;-81
2022/07/20 10:42:43;;;;;;;2.75;2.45;;;32.50;45.50;;;;;;5005741;28;20041;-80
2022/07/20 10:45:19;;;;;;;;;;;32.80;45.10;;;;;;5009550;28;20378;-81
2022/07/20 10:47:45;;;;;;;2.75;2.00;;;33.20;46.50;;;;;;5009916;28;19905;-80
2022/07/20 10:50:27;;;;;;;8.38;2.58;;;33.10;44.80;;;;;;5009221;28;20034;-80
2022/07/20 10:52:58;;;;;;;2.78;2.03;;;33.30;42.90;;;;;;5009162;28;20081;-81
2022/07/20 10:55:33;;;;;;;3.35;2.28;;;33.30;43.90;;;;;;5005376;28;20041;-81
2022/07/20 10:57:59;;;;;;;3.15;2.15;;;33.50;42.80;;;;;;5001129;28;20101;-80
2022/07/20 11:00:30;;;;;;;5.28;1.98;;;33.60;45.90;;;;;;5009799;28;20077;-80
2022/07/20 11:02:59;;;;;;;2.92;1.70;;;33.90;42.60;;;;;;5007322;28;20056;-82
2022/07/20 11:05:24;;;;;;;1.95;1.77;;;34.30;40.90;;;;;;5009834;28;20057;-81
2022/07/20 11:07:50;;;;;;;1.75;1.63;;;34.20;39.20;;;;;;5009469;28;20050;-80
2022/07/20 11:10:22;;;;;;;2.75;1.83;;;34.00;39.80;;;;;;5004677;28;20461;-81
2022/07/20 11:13:02;;;;;;;4.65;2.33;;;34.20;41.60;;;;;;5005454;28;20033;-81
2022/07/20 11:16:14;;;;;;;4.00;1.90;;;34.50;40.50;;;;;;5002688;28;20116;-78
2022/07/20 11:18:39;;;;;;;2.90;2.05;;;34.50;41.10;;;;;;4992552;28;20061;-83
2022/07/20 11:21:11;;;;;;;3.70;1.80;;;34.60;41.40;;;;;;4996805;28;20021;-81
2022/07/20 11:23:50;;;;;;;2.40;1.80;;;34.70;41.20;;;;;;4999692;28;20034;-81
2022/07/20 11:26:18;;;;;;;1.95;1.70;;;34.80;38.90;;;;;;5007342;28;20052;-80
2022/07/20 11:28:52;;;;;;;1.80;1.65;;;34.80;38.30;;;;;;5008408;28;20720;-82
2022/07/20 11:31:22;;;;;;;2.72;1.95;;;34.80;38.60;;;;;;4996444;28;20548;-79
2022/07/20 11:33:50;;;;;;;4.15;1.80;;;34.90;39.60;;;;;;5007750;28;20026;-81
2022/07/20 11:36:18;;;;;;;2.75;1.95;;;35.00;37.40;;;;;;5008910;28;20033;-82
2022/07/20 11:38:47;;;;;;;1.90;1.70;;;35.10;37.10;;;;;;5006565;28;20025;-80
2022/07/20 11:41:18;;;;;;;2.10;1.92;;;35.20;36.50;;;;;;5009276;28;20029;-82
2022/07/20 11:43:44;;;;;;;2.13;1.90;;;35.20;35.90;;;;;;5008165;28;20503;-81
2022/07/20 11:46:17;;;;;;;3.17;2.15;;;35.20;38.10;;;;;;5008233;28;20038;-80
2022/07/20 11:48:44;;;;;;;4.20;2.20;;;35.30;39.50;;;;;;5004095;28;20492;-81
2022/07/20 11:51:11;;;;;;;3.17;2.13;;;35.40;39.40;;;;;;5005143;28;20048;-82
2022/07/20 11:53:38;;;;;;;1.67;1.40;;;35.70;37.80;;;;;;5007251;28;20026;-81
2022/07/20 11:56:10;;;;;;;1.98;1.73;;;35.90;35.60;;;;;;5004833;28;20041;-80
2022/07/20 11:58:38;;;;;;;2.60;2.08;;;35.90;38.50;;;;;;5003753;28;20026;-80
2022/07/20 12:01:06;;;;;;;3.67;1.90;;;36.10;38.00;;;;;;5008570;28;20026;-79
2022/07/20 12:03:35;;;;;;;5.35;2.45;;;36.20;35.50;;;;;;5008456;28;20664;-80
2022/07/20 12:06:13;;;;;;;2.28;1.90;;;36.10;36.30;;;;;;5009465;28;20076;-79
2022/07/20 12:08:40;;;;;;;2.40;2.20;;;36.20;37.70;;;;;;5006308;28;20084;-81
2022/07/20 12:11:07;;;;;;;2.22;1.80;;;36.40;38.00;;;;;;5007666;28;20036;-80
2022/07/20 12:13:47;;;;;;;2.45;2.17;;;36.50;37.40;;;;;;4988166;28;20034;-81
2022/07/20 12:16:13;;;;;;;1.90;1.70;;;36.70;40.80;;;;;;5003886;28;20086;-80
2022/07/20 12:18:47;;;;;;;2.60;1.90;;;36.80;34.80;;;;;;5009687;28;20195;-85
2022/07/20 12:21:16;;;;;;;2.10;1.63;;;36.90;37.50;;;;;;5011362;28;20048;-78
2022/07/20 12:23:44;;;;;;;3.20;2.20;;;36.90;34.00;;;;;;4995085;28;20026;-83
2022/07/20 12:26:25;;;;;;;1.88;1.75;;;37.10;34.30;;;;;;5010569;28;20112;-84
2022/07/20 12:28:51;;;;;;;2.40;2.00;;;37.30;36.90;;;;;;5009406;28;20030;-79
2022/07/20 12:34:52;;;;;;;2.17;1.98;;;37.50;35.90;;;;;;4989792;28;20370;-81
2022/07/20 12:37:19;;;;;;;2.17;1.98;;;37.90;33.00;;;;;;5009497;28;20030;-81
2022/07/20 12:39:53;;;;;;;2.97;2.28;;;38.40;34.00;;;;;;5007652;28;20080;-82
2022/07/20 12:42:28;;;;;;;2.85;2.47;;;38.70;37.10;;;;;;5008229;28;20377;-82
2022/07/20 12:45:04;;;;;;;2.55;2.25;;;38.60;36.70;;;;;;5007894;28;20149;-79
2022/07/20 12:47:30;;;;;;;3.35;1.92;;;39.00;35.60;;;;;;5008858;28;20080;-82
2022/07/20 12:49:55;;;;;;;2.13;1.88;;;38.80;35.20;;;;;;5008477;28;20022;-78
2022/07/20 12:52:21;;;;;;;2.40;2.20;;;38.30;33.50;;;;;;5015553;28;20435;-81
2022/07/20 12:54:56;;;;;;;2.58;1.90;;;38.20;34.60;;;;;;5006148;28;20037;-77
2022/07/20 12:57:22;;;;;;;3.42;1.70;;;38.70;35.80;;;;;;5010932;28;20172;-78